Time;durP1;ratioP1;P1;durP2;ratioP2;P2;SDS_P1;SDS_P2;PMS_P1;PMS_P2;Temp;Humidity;BMP_temperature;BMP_pressure;BME280_temperature;BME280_humidity;BME280_pressure;Samples;Min_cycle;Max_cycle;Signal;HPM_P1;HPM_P2
2022/05/17 00:01:30;;;;;;;;;;;18.00;60.40;;;;;;491207;242;1199;-77
2022/05/17 00:03:31;;;;;;;;;;;18.00;60.40;;;;;;494237;241;1148;-77
2022/05/17 00:05:32;;;;;;;;;;;18.00;60.20;;;;;;491087;242;964;-77
2022/05/17 00:07:34;;;;;;;;;;;18.00;60.20;;;;;;494338;241;1079;-77
2022/05/17 00:09:35;;;;;;;;;;;18.00;60.40;;;;;;491226;242;1004;-77
2022/05/17 00:11:36;;;;;;;;;;;18.00;60.50;;;;;;494225;241;1076;-77
2022/05/17 00:13:38;;;;;;;;;;;18.00;60.30;;;;;;491174;242;969;-77
2022/05/17 00:15:39;;;;;;;;;;;18.00;60.40;;;;;;494190;241;1185;-77
2022/05/17 00:17:40;;;;;;;;;;;18.00;60.50;;;;;;491114;242;2188;-77
2022/05/17 00:19:42;;;;;;;;;;;18.00;60.50;;;;;;494247;241;1111;-77
2022/05/17 00:21:43;;;;;;;;;;;18.00;60.50;;;;;;491052;241;1175;-77
2022/05/17 00:23:44;;;;;;;;;;;18.00;60.50;;;;;;494187;241;1078;-77
2022/05/17 00:25:47;;;;;;;;;;;18.00;60.60;;;;;;491115;242;1209;-78
2022/05/17 00:27:47;;;;;;;;;;;17.90;60.70;;;;;;494195;241;1351;-77
2022/05/17 00:29:49;;;;;;;;;;;18.00;60.70;;;;;;491238;242;1079;-77
2022/05/17 00:31:50;;;;;;;;;;;18.00;60.70;;;;;;494208;241;1288;-77
2022/05/17 00:33:51;;;;;;;;;;;18.00;60.50;;;;;;491168;242;1063;-77
2022/05/17 00:35:53;;;;;;;;;;;18.00;60.60;;;;;;494120;241;1354;-77
2022/05/17 00:37:54;;;;;;;;;;;18.00;60.40;;;;;;491111;242;2134;-77
2022/05/17 00:39:55;;;;;;;;;;;18.00;60.10;;;;;;494254;241;1131;-77
2022/05/17 00:41:57;;;;;;;;;;;18.10;60.10;;;;;;491184;242;1164;-77
2022/05/17 00:46:18;;;;;;;;;;;18.10;60.10;;;;;;491203;238;1228;-77
2022/05/17 00:48:19;;;;;;;;;;;18.10;60.10;;;;;;494218;241;1087;-77
2022/05/17 00:50:20;;;;;;;;;;;18.00;60.10;;;;;;491094;242;1224;-77
2022/05/17 00:52:22;;;;;;;;;;;18.00;60.10;;;;;;494255;241;1176;-77
2022/05/17 00:54:23;;;;;;;;;;;18.00;60.20;;;;;;491057;242;1044;-77
2022/05/17 00:56:25;;;;;;;;;;;18.00;60.10;;;;;;494111;241;1190;-77
2022/05/17 00:58:25;;;;;;;;;;;18.00;60.10;;;;;;491255;242;2196;-77
2022/05/17 01:00:27;;;;;;;;;;;18.00;60.10;;;;;;494194;241;1114;-77
2022/05/17 01:02:28;;;;;;;;;;;18.10;60.20;;;;;;491140;242;1206;-77
2022/05/17 01:04:29;;;;;;;;;;;18.10;60.10;;;;;;494262;241;1017;-77
2022/05/17 01:06:31;;;;;;;;;;;18.10;60.10;;;;;;491082;242;1214;-77
2022/05/17 01:08:32;;;;;;;;;;;18.00;60.00;;;;;;494324;241;1121;-77
2022/05/17 01:10:33;;;;;;;;;;;18.00;60.00;;;;;;491206;242;1162;-77
2022/05/17 01:12:35;;;;;;;;;;;18.10;60.00;;;;;;494263;241;1130;-77
2022/05/17 01:16:55;;;;;;;;;;;18.00;60.10;;;;;;494399;241;1208;-77
2022/05/17 01:18:57;;;;;;;;;;;18.10;60.10;;;;;;491184;242;2188;-77
2022/05/17 01:20:58;;;;;;;;;;;18.10;60.00;;;;;;494368;241;1085;-77
2022/05/17 01:22:59;;;;;;;;;;;18.10;60.00;;;;;;491341;242;1052;-77
2022/05/17 01:25:01;;;;;;;;;;;18.10;59.90;;;;;;494277;241;941;-77
2022/05/17 01:27:02;;;;;;;;;;;18.10;60.00;;;;;;491068;242;1148;-77
2022/05/17 01:29:05;;;;;;;;;;;18.00;59.90;;;;;;494262;241;1143;-77
2022/05/17 01:31:05;;;;;;;;;;;18.00;60.00;;;;;;491145;242;1373;-77
2022/05/17 01:33:06;;;;;;;;;;;18.00;60.00;;;;;;494208;241;1205;-78
2022/05/17 01:35:08;;;;;;;;;;;18.00;60.00;;;;;;491146;242;1155;-77
2022/05/17 01:37:09;;;;;;;;;;;18.00;60.10;;;;;;494053;241;1433;-77
2022/05/17 01:39:10;;;;;;;;;;;18.00;60.00;;;;;;491088;242;2173;-77
2022/05/17 01:41:12;;;;;;;;;;;18.00;60.10;;;;;;494297;241;1069;-77
2022/05/17 01:43:13;;;;;;;;;;;18.00;60.00;;;;;;491128;242;1105;-77
2022/05/17 01:45:14;;;;;;;;;;;18.00;60.10;;;;;;494294;241;1280;-77
2022/05/17 01:47:16;;;;;;;;;;;18.10;60.00;;;;;;491308;242;1139;-77
2022/05/17 01:49:17;;;;;;;;;;;18.10;59.80;;;;;;494330;241;1124;-77
2022/05/17 01:51:18;;;;;;;;;;;18.10;59.90;;;;;;491036;242;1212;-77
2022/05/17 01:53:19;;;;;;;;;;;18.10;59.80;;;;;;494411;241;1097;-77
2022/05/17 01:55:21;;;;;;;;;;;18.10;60.00;;;;;;491073;242;1102;-77
2022/05/17 01:57:22;;;;;;;;;;;18.10;60.00;;;;;;494351;241;1080;-77
2022/05/17 01:59:24;;;;;;;;;;;18.10;59.80;;;;;;491215;242;2172;-77
2022/05/17 02:01:25;;;;;;;;;;;18.20;59.70;;;;;;494226;241;1234;-77
2022/05/17 02:03:26;;;;;;;;;;;18.10;59.60;;;;;;491198;242;1077;-77
2022/05/17 02:05:27;;;;;;;;;;;18.10;59.70;;;;;;494092;241;1058;-77
2022/05/17 02:07:29;;;;;;;;;;;18.10;59.80;;;;;;490957;242;1101;-77
2022/05/17 02:09:30;;;;;;;;;;;18.10;59.80;;;;;;494261;241;979;-77
2022/05/17 02:11:31;;;;;;;;;;;18.10;59.80;;;;;;491153;242;996;-77
2022/05/17 02:13:33;;;;;;;;;;;18.10;59.80;;;;;;494241;240;1152;-77
2022/05/17 02:15:34;;;;;;;;;;;18.10;59.80;;;;;;491095;242;989;-77
2022/05/17 02:17:35;;;;;;;;;;;18.00;59.80;;;;;;494218;241;1168;-77
2022/05/17 02:19:37;;;;;;;;;;;18.10;59.70;;;;;;491163;242;2184;-77
2022/05/17 02:21:39;;;;;;;;;;;18.10;59.80;;;;;;494139;241;1249;-77
2022/05/17 02:23:40;;;;;;;;;;;18.00;59.90;;;;;;491058;242;1355;-77
2022/05/17 02:25:41;;;;;;;;;;;18.00;59.90;;;;;;494157;241;1489;-77
2022/05/17 02:27:43;;;;;;;;;;;18.00;59.80;;;;;;491250;242;1107;-77
2022/05/17 02:29:44;;;;;;;;;;;18.00;59.90;;;;;;494301;241;1186;-77
2022/05/17 02:31:45;;;;;;;;;;;18.10;59.90;;;;;;491136;242;1216;-77
2022/05/17 02:33:47;;;;;;;;;;;18.00;60.00;;;;;;494213;241;1157;-77
2022/05/17 02:35:48;;;;;;;;;;;18.00;59.80;;;;;;491117;242;1104;-77
2022/05/17 02:37:49;;;;;;;;;;;18.00;59.80;;;;;;494187;241;1184;-77
2022/05/17 02:39:51;;;;;;;;;;;18.00;60.00;;;;;;491071;242;2365;-77
2022/05/17 02:41:52;;;;;;;;;;;18.00;60.00;;;;;;494200;241;1221;-77
2022/05/17 02:43:53;;;;;;;;;;;18.00;59.90;;;;;;491188;242;1060;-77
2022/05/17 02:45:55;;;;;;;;;;;18.00;59.90;;;;;;494089;241;1221;-77
2022/05/17 02:47:56;;;;;;;;;;;18.00;59.80;;;;;;491008;242;1051;-77
2022/05/17 02:49:57;;;;;;;;;;;18.00;59.90;;;;;;494127;241;1266;-77
2022/05/17 02:51:59;;;;;;;;;;;18.00;59.90;;;;;;490988;242;1313;-77
2022/05/17 02:54:00;;;;;;;;;;;18.00;59.90;;;;;;494166;241;1058;-77
2022/05/17 02:56:01;;;;;;;;;;;18.00;59.90;;;;;;491079;242;1096;-77
2022/05/17 02:58:03;;;;;;;;;;;18.10;59.80;;;;;;494210;241;1289;-77
2022/05/17 03:00:04;;;;;;;;;;;18.10;59.70;;;;;;491098;242;2191;-77
2022/05/17 03:02:05;;;;;;;;;;;18.10;59.70;;;;;;494225;239;1217;-77
2022/05/17 03:04:07;;;;;;;;;;;18.10;59.70;;;;;;491032;242;1085;-77
2022/05/17 03:06:08;;;;;;;;;;;18.00;59.70;;;;;;494154;241;1167;-77
2022/05/17 03:08:09;;;;;;;;;;;18.10;59.70;;;;;;491059;242;1162;-77
2022/05/17 03:10:11;;;;;;;;;;;18.00;59.70;;;;;;494250;241;1099;-77
2022/05/17 03:12:12;;;;;;;;;;;18.10;59.80;;;;;;491096;242;1123;-77
2022/05/17 03:14:13;;;;;;;;;;;18.00;59.80;;;;;;494277;240;1147;-77
2022/05/17 03:16:15;;;;;;;;;;;18.00;59.70;;;;;;491018;242;1359;-77
2022/05/17 03:18:16;;;;;;;;;;;18.00;59.80;;;;;;494117;241;2199;-77
2022/05/17 03:20:17;;;;;;;;;;;18.00;59.80;;;;;;491107;242;1143;-76
2022/05/17 03:22:18;;;;;;;;;;;18.00;59.90;;;;;;494049;241;1137;-77
2022/05/17 03:24:20;;;;;;;;;;;17.90;59.90;;;;;;491301;242;1090;-77
2022/05/17 03:26:21;;;;;;;;;;;17.90;60.00;;;;;;494189;241;1156;-77
2022/05/17 03:28:22;;;;;;;;;;;17.90;60.10;;;;;;491159;242;1148;-77
2022/05/17 03:30:24;;;;;;;;;;;17.90;60.00;;;;;;494409;241;1140;-77
2022/05/17 03:32:25;;;;;;;;;;;18.00;59.90;;;;;;491178;242;1055;-77
2022/05/17 03:34:26;;;;;;;;;;;18.00;59.80;;;;;;494132;241;1388;-77
2022/05/17 03:36:28;;;;;;;;;;;18.00;59.80;;;;;;491205;242;1110;-77
2022/05/17 03:38:29;;;;;;;;;;;18.00;59.90;;;;;;494176;241;2191;-77
2022/05/17 03:40:30;;;;;;;;;;;18.00;60.00;;;;;;491070;242;1136;-77
2022/05/17 03:42:32;;;;;;;;;;;18.00;60.00;;;;;;494209;241;1122;-77
2022/05/17 03:44:33;;;;;;;;;;;18.00;60.00;;;;;;491071;242;980;-77
2022/05/17 03:46:34;;;;;;;;;;;18.00;59.80;;;;;;494199;241;1070;-77
2022/05/17 03:48:36;;;;;;;;;;;18.00;59.90;;;;;;491171;242;1121;-77
2022/05/17 03:50:38;;;;;;;;;;;18.00;60.00;;;;;;494186;241;1193;-77
2022/05/17 03:52:39;;;;;;;;;;;18.00;60.00;;;;;;491120;242;1099;-77
2022/05/17 03:54:40;;;;;;;;;;;18.00;59.60;;;;;;494297;241;941;-77
2022/05/17 03:56:42;;;;;;;;;;;18.00;59.60;;;;;;491067;242;1356;-77
2022/05/17 03:58:43;;;;;;;;;;;18.00;59.70;;;;;;494178;241;2182;-77
2022/05/17 04:00:44;;;;;;;;;;;18.00;59.70;;;;;;491087;242;1097;-77
2022/05/17 04:02:45;;;;;;;;;;;18.10;59.60;;;;;;494125;241;1179;-77
2022/05/17 04:04:47;;;;;;;;;;;18.10;59.60;;;;;;491106;242;1144;-77
2022/05/17 04:06:48;;;;;;;;;;;18.00;59.70;;;;;;494479;241;1164;-79
2022/05/17 04:08:49;;;;;;;;;;;18.00;59.80;;;;;;491505;242;1071;-79
2022/05/17 04:10:51;;;;;;;;;;;18.00;59.80;;;;;;494574;241;1141;-79
2022/05/17 04:12:52;;;;;;;;;;;18.00;59.90;;;;;;491445;242;1319;-79
2022/05/17 04:14:53;;;;;;;;;;;18.00;59.90;;;;;;494628;241;1110;-79
2022/05/17 04:16:55;;;;;;;;;;;18.00;59.70;;;;;;491392;242;1096;-79
2022/05/17 04:18:56;;;;;;;;;;;18.00;59.60;;;;;;494554;241;2215;-79
2022/05/17 04:20:57;;;;;;;;;;;18.00;59.60;;;;;;491473;242;1203;-79
2022/05/17 04:22:59;;;;;;;;;;;18.00;59.80;;;;;;494553;241;1069;-78
2022/05/17 04:25:00;;;;;;;;;;;18.00;59.90;;;;;;491451;242;1174;-79
2022/05/17 04:27:01;;;;;;;;;;;18.00;59.80;;;;;;494432;241;1204;-79
2022/05/17 04:29:03;;;;;;;;;;;18.00;59.70;;;;;;491338;242;1000;-79
2022/05/17 04:31:04;;;;;;;;;;;18.00;59.70;;;;;;494348;241;1288;-79
2022/05/17 04:33:07;;;;;;;;;;;18.00;59.70;;;;;;491246;242;1264;-79
2022/05/17 04:35:07;;;;;;;;;;;18.00;59.70;;;;;;494351;241;1422;-79
2022/05/17 04:37:08;;;;;;;;;;;18.00;59.60;;;;;;491341;241;1190;-79
2022/05/17 04:39:09;;;;;;;;;;;18.00;59.70;;;;;;494331;241;2183;-79
2022/05/17 04:41:11;;;;;;;;;;;18.00;59.60;;;;;;491277;242;1234;-79
2022/05/17 04:43:12;;;;;;;;;;;18.00;59.70;;;;;;494495;241;1037;-79
2022/05/17 04:45:14;;;;;;;;;;;18.00;59.80;;;;;;491232;242;1057;-78
2022/05/17 04:47:15;;;;;;;;;;;17.90;59.70;;;;;;494367;241;1161;-79
2022/05/17 04:49:17;;;;;;;;;;;17.90;59.90;;;;;;491326;242;1021;-79
2022/05/17 04:51:18;;;;;;;;;;;18.10;59.60;;;;;;494418;241;1171;-79
2022/05/17 04:53:19;;;;;;;;;;;18.00;59.50;;;;;;491219;242;1068;-79
2022/05/17 04:55:21;;;;;;;;;;;18.00;59.70;;;;;;494355;241;1096;-79
2022/05/17 04:57:22;;;;;;;;;;;18.00;59.60;;;;;;491133;242;1050;-79
2022/05/17 04:59:24;;;;;;;;;;;18.10;59.70;;;;;;494229;241;2175;-79
2022/05/17 05:01:25;;;;;;;;;;;18.00;59.70;;;;;;491149;242;1124;-79
2022/05/17 05:03:26;;;;;;;;;;;18.00;59.70;;;;;;494288;241;1039;-78
2022/05/17 05:05:28;;;;;;;;;;;17.90;59.80;;;;;;491177;242;1186;-78
2022/05/17 05:07:29;;;;;;;;;;;18.00;59.90;;;;;;494297;241;1197;-79
2022/05/17 05:09:30;;;;;;;;;;;18.00;59.80;;;;;;491192;242;1160;-79
2022/05/17 05:11:32;;;;;;;;;;;18.00;59.80;;;;;;494208;241;1156;-79
2022/05/17 05:13:33;;;;;;;;;;;18.00;59.80;;;;;;491158;242;1158;-79
2022/05/17 05:15:35;;;;;;;;;;;18.10;59.50;;;;;;494102;241;1267;-79
2022/05/17 05:17:36;;;;;;;;;;;18.20;59.30;;;;;;491194;242;1216;-79
2022/05/17 05:19:37;;;;;;;;;;;18.20;59.10;;;;;;494254;241;2178;-78
2022/05/17 05:21:39;;;;;;;;;;;18.20;59.20;;;;;;491077;242;1184;-79
2022/05/17 05:23:40;;;;;;;;;;;18.10;59.30;;;;;;494278;241;1064;-78
2022/05/17 05:25:41;;;;;;;;;;;18.10;59.40;;;;;;491106;242;1115;-78
2022/05/17 05:27:43;;;;;;;;;;;18.10;59.60;;;;;;494216;241;1071;-79
2022/05/17 05:29:44;;;;;;;;;;;18.10;59.30;;;;;;491281;242;1187;-79
2022/05/17 05:31:46;;;;;;;;;;;18.20;59.20;;;;;;494267;241;1161;-79
2022/05/17 05:33:46;;;;;;;;;;;18.70;57.70;;;;;;491321;242;1200;-79
2022/05/17 05:35:48;;;;;;;;;;;19.20;56.40;;;;;;494229;241;1171;-79
2022/05/17 05:37:49;;;;;;;;;;;19.50;55.60;;;;;;491241;242;1100;-78
2022/05/17 05:39:50;;;;;;;;;;;19.70;54.80;;;;;;494369;241;2189;-79
2022/05/17 05:41:53;;;;;;;;;;;19.90;54.40;;;;;;491167;242;1142;-79
2022/05/17 05:43:54;;;;;;;;;;;20.00;54.30;;;;;;494232;241;1138;-79
2022/05/17 05:45:55;;;;;;;;;;;20.00;54.10;;;;;;491271;242;1288;-79
2022/05/17 05:47:56;;;;;;;;;;;20.20;53.80;;;;;;494412;241;1305;-79
2022/05/17 05:49:58;;;;;;;;;;;20.30;53.50;;;;;;491309;242;1184;-79
2022/05/17 05:51:59;;;;;;;;;;;20.30;53.40;;;;;;494278;241;1149;-79
2022/05/17 05:54:00;;;;;;;;;;;20.50;53.10;;;;;;491112;242;1146;-79
2022/05/17 05:56:02;;;;;;;;;;;20.50;53.00;;;;;;494080;241;1119;-79
2022/05/17 05:58:04;;;;;;;;;;;20.60;52.80;;;;;;491087;242;1226;-79
2022/05/17 06:00:06;;;;;;;;;;;20.50;52.80;;;;;;494266;241;2186;-79
2022/05/17 06:02:06;;;;;;;;;;;20.70;52.60;;;;;;491106;242;1400;-79
2022/05/17 06:04:07;;;;;;;;;;;20.80;52.30;;;;;;494218;241;1140;-79
2022/05/17 06:06:08;;;;;;;;;;;20.90;52.10;;;;;;491167;242;1255;-79
2022/05/17 06:08:10;;;;;;;;;;;20.90;52.00;;;;;;494262;241;1153;-79
2022/05/17 06:10:11;;;;;;;;;;;21.00;51.80;;;;;;490948;242;1178;-79
2022/05/17 06:12:12;;;;;;;;;;;21.10;51.80;;;;;;493975;241;1180;-79
2022/05/17 06:14:14;;;;;;;;;;;21.00;51.80;;;;;;491162;242;1088;-79
2022/05/17 06:16:16;;;;;;;;;;;21.10;51.80;;;;;;494208;241;1152;-79
2022/05/17 06:18:16;;;;;;;;;;;21.10;51.60;;;;;;490909;242;1073;-79
2022/05/17 06:20:18;;;;;;;;;;;21.10;51.60;;;;;;493966;241;2120;-79
2022/05/17 06:22:19;;;;;;;;;;;21.20;51.40;;;;;;490687;242;1204;-79
2022/05/17 06:24:20;;;;;;;;;;;21.10;51.70;;;;;;494060;241;1200;-79
2022/05/17 06:26:22;;;;;;;;;;;21.20;51.60;;;;;;491059;242;1313;-79
2022/05/17 06:28:23;;;;;;;;;;;21.30;51.30;;;;;;493968;241;1108;-79
2022/05/17 06:30:24;;;;;;;;;;;21.30;51.30;;;;;;490917;242;1102;-79
2022/05/17 06:32:26;;;;;;;;;;;21.30;51.30;;;;;;493881;241;1166;-79
2022/05/17 06:34:27;;;;;;;;;;;21.40;51.20;;;;;;490842;242;1139;-79
2022/05/17 06:36:28;;;;;;;;;;;21.50;51.00;;;;;;493862;241;1149;-79
2022/05/17 06:38:30;;;;;;;;;;;21.50;50.70;;;;;;490868;242;1090;-79
2022/05/17 06:40:31;;;;;;;;;;;21.60;50.70;;;;;;494084;241;2108;-79
2022/05/17 06:42:32;;;;;;;;;;;21.60;50.80;;;;;;490859;242;1151;-79
2022/05/17 06:44:34;;;;;;;;;;;21.60;50.80;;;;;;494010;241;1099;-78
2022/05/17 06:46:35;;;;;;;;;;;21.60;50.80;;;;;;490895;242;1217;-79
2022/05/17 06:48:36;;;;;;;;;;;21.70;50.70;;;;;;494022;241;1265;-79
2022/05/17 06:50:37;;;;;;;;;;;21.70;50.60;;;;;;490683;242;1248;-79
2022/05/17 06:52:39;;;;;;;;;;;21.70;50.60;;;;;;493746;241;1307;-79
2022/05/17 06:54:41;;;;;;;;;;;21.80;50.60;;;;;;490433;242;1348;-79
2022/05/17 06:56:42;;;;;;;;;;;21.80;51.00;;;;;;493996;241;1107;-79
2022/05/17 06:58:44;;;;;;;;;;;21.80;50.90;;;;;;490559;242;1246;-79
2022/05/17 07:00:45;;;;;;;;;;;21.90;50.80;;;;;;493579;241;2190;-79
2022/05/17 07:02:46;;;;;;;;;;;22.00;50.70;;;;;;490578;242;1305;-79
2022/05/17 07:04:48;;;;;;;;;;;22.00;50.60;;;;;;493811;241;1083;-79
2022/05/17 07:06:49;;;;;;;;;;;21.90;50.70;;;;;;490698;242;1267;-79
2022/05/17 07:08:50;;;;;;;;;;;21.90;50.90;;;;;;493689;241;1143;-79
2022/05/17 07:13:12;;;;;;;;;;;22.10;50.60;;;;;;493847;241;1192;-79
2022/05/17 07:15:12;;;;;;;;;;;22.30;50.40;;;;;;490771;242;1375;-79
2022/05/17 07:17:15;;;;;;;;;;;22.40;50.10;;;;;;493797;241;1073;-79
2022/05/17 07:19:15;;;;;;;;;;;22.50;49.90;;;;;;490836;243;1375;-79
2022/05/17 07:21:16;;;;;;;;;;;22.40;50.10;;;;;;493749;241;2190;-79
2022/05/17 07:23:18;;;;;;;;;;;22.30;50.50;;;;;;490884;242;1109;-79
2022/05/17 07:25:19;;;;;;;;;;;22.30;51.00;;;;;;493755;241;1098;-79
2022/05/17 07:27:20;;;;;;;;;;;22.30;51.20;;;;;;490889;241;1295;-79
2022/05/17 07:29:22;;;;;;;;;;;22.40;51.30;;;;;;493747;241;1145;-79
2022/05/17 07:31:23;;;;;;;;;;;22.50;51.40;;;;;;490516;242;1159;-79
2022/05/17 07:33:24;;;;;;;;;;;22.50;51.60;;;;;;493664;241;1134;-79
2022/05/17 07:35:26;;;;;;;;;;;22.70;51.40;;;;;;490523;242;1254;-79
2022/05/17 07:37:27;;;;;;;;;;;22.60;51.70;;;;;;493806;241;1725;-79
2022/05/17 07:39:28;;;;;;;;;;;22.80;51.60;;;;;;490868;242;1030;-79
2022/05/17 07:41:30;;;;;;;;;;;23.00;51.30;;;;;;493725;241;2194;-79
2022/05/17 07:43:31;;;;;;;;;;;23.00;51.50;;;;;;490860;242;977;-79
2022/05/17 07:45:32;;;;;;;;;;;23.10;51.50;;;;;;493837;241;1335;-79
2022/05/17 07:47:34;;;;;;;;;;;23.10;51.50;;;;;;490614;242;1359;-79
2022/05/17 07:49:35;;;;;;;;;;;23.20;51.50;;;;;;493915;241;983;-79
2022/05/17 07:51:36;;;;;;;;;;;23.30;51.20;;;;;;490827;242;1229;-79
2022/05/17 07:53:38;;;;;;;;;;;23.30;51.00;;;;;;494281;241;1036;-79
2022/05/17 07:55:39;;;;;;;;;;;23.30;51.00;;;;;;490747;242;1210;-79
2022/05/17 07:57:40;;;;;;;;;;;23.20;51.20;;;;;;493780;241;1183;-79
2022/05/17 07:59:43;;;;;;;;;;;23.20;51.30;;;;;;490879;242;1255;-79
2022/05/17 08:01:43;;;;;;;;;;;23.20;51.20;;;;;;493651;241;2186;-79
2022/05/17 08:03:44;;;;;;;;;;;23.10;51.20;;;;;;490532;242;1127;-79
2022/05/17 08:05:46;;;;;;;;;;;23.00;51.30;;;;;;493600;241;1278;-79
2022/05/17 08:07:48;;;;;;;;;;;22.90;51.50;;;;;;490542;242;1265;-79
2022/05/17 08:09:48;;;;;;;;;;;22.80;51.60;;;;;;493600;241;1296;-79
2022/05/17 08:11:49;;;;;;;;;;;22.70;51.60;;;;;;490700;242;1185;-77
2022/05/17 08:13:51;;;;;;;;;;;22.60;51.50;;;;;;494051;241;1178;-79
2022/05/17 08:15:53;;;;;;;;;;;22.60;51.60;;;;;;491373;242;1453;-79
2022/05/17 08:17:55;;;;;;;;;;;22.50;51.70;;;;;;493959;241;1316;-79
2022/05/17 08:19:55;;;;;;;;;;;22.50;51.80;;;;;;491440;242;1328;-79
2022/05/17 08:21:56;;;;;;;;;;;22.60;51.70;;;;;;493945;241;2167;-79
2022/05/17 08:23:57;;;;;;;;;;;22.70;51.60;;;;;;490963;242;1108;-79
2022/05/17 08:28:18;;;;;;;;;;;22.90;51.30;;;;;;490878;243;1072;-79
2022/05/17 08:30:19;;;;;;;;;;;23.00;51.10;;;;;;493716;241;1123;-79
2022/05/17 08:34:40;;;;;;;;;;;23.30;50.50;;;;;;493881;241;1307;-79
2022/05/17 08:36:42;;;;;;;;;;;23.30;50.40;;;;;;490471;242;1149;-79
2022/05/17 08:38:43;;;;;;;;;;;23.40;50.20;;;;;;493739;241;1219;-79
2022/05/17 08:40:45;;;;;;;;;;;23.40;50.00;;;;;;490198;242;2195;-79
2022/05/17 08:42:45;;;;;;;;;;;23.30;50.20;;;;;;493159;241;1128;-78
2022/05/17 08:44:47;;;;;;;;;;;23.20;50.40;;;;;;490670;242;1112;-79
2022/05/17 08:46:48;;;;;;;;;;;23.00;50.70;;;;;;493723;241;1290;-79
2022/05/17 08:48:49;;;;;;;;;;;22.80;50.70;;;;;;490516;242;1081;-79
2022/05/17 08:50:51;;;;;;;;;;;22.80;50.80;;;;;;493554;241;1163;-79
2022/05/17 08:52:53;;;;;;;;;;;22.70;50.90;;;;;;490583;242;1274;-78
2022/05/17 08:54:53;;;;;;;;;;;22.50;51.00;;;;;;493412;241;1386;-79
2022/05/17 08:56:55;;;;;;;;;;;22.50;51.10;;;;;;490736;242;1106;-79
2022/05/17 08:58:56;;;;;;;;;;;22.50;51.10;;;;;;494093;241;1107;-79
2022/05/17 09:00:59;;;;;;;;;;;22.40;51.00;;;;;;490912;242;2189;-79
2022/05/17 09:02:59;;;;;;;;;;;22.20;51.10;;;;;;493905;241;1237;-79
2022/05/17 09:05:00;;;;;;;;;;;22.20;51.30;;;;;;490652;242;1313;-79
2022/05/17 09:07:01;;;;;;;;;;;22.20;50.90;;;;;;493856;241;1328;-79
2022/05/17 09:09:03;;;;;;;;;;;22.20;51.10;;;;;;490954;242;1302;-79
2022/05/17 09:11:04;;;;;;;;;;;22.10;51.10;;;;;;494104;241;1138;-79
2022/05/17 09:13:05;;;;;;;;;;;22.10;51.00;;;;;;490834;242;1042;-79
2022/05/17 09:15:07;;;;;;;;;;;22.00;51.20;;;;;;493808;241;1198;-79
2022/05/17 09:17:08;;;;;;;;;;;22.10;51.00;;;;;;490617;242;1157;-79
2022/05/17 09:19:09;;;;;;;;;;;22.00;51.40;;;;;;493673;241;1167;-79
2022/05/17 09:21:11;;;;;;;;;;;22.00;51.00;;;;;;490771;242;2195;-79
2022/05/17 09:23:12;;;;;;;;;;;22.10;50.90;;;;;;493632;241;1126;-79
2022/05/17 09:25:13;;;;;;;;;;;22.10;50.80;;;;;;490282;242;1396;-79
2022/05/17 09:27:15;;;;;;;;;;;22.20;50.90;;;;;;493320;241;1175;-79
2022/05/17 09:29:16;;;;;;;;;;;22.20;50.60;;;;;;490310;242;1154;-79
2022/05/17 09:31:18;;;;;;;;;;;22.20;50.60;;;;;;493406;241;1153;-79
2022/05/17 09:33:19;;;;;;;;;;;22.20;50.50;;;;;;490394;242;1145;-79
2022/05/17 09:35:20;;;;;;;;;;;22.20;50.50;;;;;;493564;241;1542;-79
2022/05/17 09:37:21;;;;;;;;;;;22.20;50.30;;;;;;490503;242;1151;-79
2022/05/17 09:39:23;;;;;;;;;;;22.10;50.50;;;;;;493502;241;1244;-79
2022/05/17 09:41:24;;;;;;;;;;;22.20;50.30;;;;;;490185;242;2173;-79
2022/05/17 09:43:25;;;;;;;;;;;22.20;50.50;;;;;;493777;241;1115;-78
2022/05/17 09:45:26;;;;;;;;;;;22.10;50.50;;;;;;490934;242;1017;-79
2022/05/17 09:47:28;;;;;;;;;;;22.10;50.50;;;;;;493728;241;1090;-78
2022/05/17 09:54:08;;;;;;;;;;;22.00;50.50;;;;;;490558;243;1169;-79
2022/05/17 09:56:10;;;;;;;;;;;22.10;50.40;;;;;;493597;241;1134;-78
2022/05/17 09:58:11;;;;;;;;;;;22.10;50.30;;;;;;490496;242;1155;-79
2022/05/17 10:00:13;;;;;;;;;;;22.00;50.40;;;;;;493787;241;1117;-79
2022/05/17 10:02:14;;;;;;;;;;;22.00;50.30;;;;;;490690;242;2169;-79
2022/05/17 10:04:15;;;;;;;;;;;22.10;50.20;;;;;;494162;241;1112;-79
2022/05/17 10:06:17;;;;;;;;;;;22.10;50.20;;;;;;491049;242;990;-79
2022/05/17 10:08:18;;;;;;;;;;;22.20;50.10;;;;;;493801;240;1261;-79
2022/05/17 10:10:19;;;;;;;;;;;22.10;50.00;;;;;;490856;242;1230;-78
2022/05/17 10:12:21;;;;;;;;;;;22.20;50.00;;;;;;493923;241;1090;-79
2022/05/17 10:14:22;;;;;;;;;;;22.20;50.00;;;;;;490549;241;1163;-79
2022/05/17 10:16:23;;;;;;;;;;;22.20;49.90;;;;;;493604;241;1147;-79
2022/05/17 10:18:24;;;;;;;;;;;22.30;49.90;;;;;;490510;242;1139;-79
2022/05/17 10:20:26;;;;;;;;;;;22.10;49.80;;;;;;493580;241;1068;-79
2022/05/17 10:22:27;;;;;;;;;;;22.10;50.10;;;;;;490449;242;2121;-78
2022/05/17 10:24:29;;;;;;;;;;;22.10;50.20;;;;;;493646;241;1190;-79
2022/05/17 10:26:30;;;;;;;;;;;22.00;50.10;;;;;;490701;242;1183;-79
2022/05/17 10:28:31;;;;;;;;;;;22.10;50.00;;;;;;493210;239;1159;-79
2022/05/17 10:30:33;;;;;;;;;;;22.10;49.90;;;;;;490586;242;1279;-79
2022/05/17 10:32:34;;;;;;;;;;;22.20;49.80;;;;;;493618;241;1131;-79
2022/05/17 10:34:35;;;;;;;;;;;22.20;49.70;;;;;;490596;242;1198;-79
2022/05/17 10:36:37;;;;;;;;;;;22.10;49.80;;;;;;493551;241;1151;-79
2022/05/17 10:38:38;;;;;;;;;;;22.20;49.80;;;;;;491248;242;1141;-79
2022/05/17 10:40:43;;;;;;;;;;;22.10;49.80;;;;;;494003;241;1010;-79
2022/05/17 10:42:41;;;;;;;;;;;22.10;49.80;;;;;;490444;243;2200;-79
2022/05/17 10:44:42;;;;;;;;;;;22.10;49.80;;;;;;493681;241;1088;-79
2022/05/17 10:46:47;;;;;;;;;;;22.10;49.70;;;;;;490609;242;1190;-78
2022/05/17 10:48:45;;;;;;;;;;;22.10;49.70;;;;;;493279;241;1377;-79
2022/05/17 10:50:46;;;;;;;;;;;22.10;49.70;;;;;;490550;242;1089;-79
2022/05/17 10:52:47;;;;;;;;;;;22.20;49.70;;;;;;493467;241;1142;-79
2022/05/17 10:54:49;;;;;;;;;;;22.10;49.70;;;;;;490359;242;1085;-79
2022/05/17 10:56:50;;;;;;;;;;;22.20;49.70;;;;;;493132;241;1136;-79
2022/05/17 10:58:52;;;;;;;;;;;22.10;49.80;;;;;;490200;242;1108;-79
2022/05/17 11:00:53;;;;;;;;;;;22.20;49.80;;;;;;493537;241;1530;-79
2022/05/17 11:02:54;;;;;;;;;;;22.20;49.80;;;;;;490391;242;2207;-79
2022/05/17 11:04:58;;;;;;;;;;;22.20;49.70;;;;;;493513;241;1280;-79
2022/05/17 11:07:00;;;;;;;;;;;22.20;49.60;;;;;;490328;242;1222;-79
2022/05/17 11:09:01;;;;;;;;;;;22.20;49.70;;;;;;493326;241;1170;-78
2022/05/17 11:11:02;;;;;;;;;;;22.10;49.90;;;;;;490138;242;1109;-79
2022/05/17 11:13:04;;;;;;;;;;;22.10;49.80;;;;;;493185;241;1284;-78
2022/05/17 11:15:05;;;;;;;;;;;22.10;49.90;;;;;;490250;242;1414;-79
2022/05/17 11:17:06;;;;;;;;;;;22.10;49.80;;;;;;493426;241;1261;-79
2022/05/17 11:19:08;;;;;;;;;;;22.10;49.70;;;;;;490627;242;1508;-78
2022/05/17 11:21:09;;;;;;;;;;;22.20;49.60;;;;;;493558;241;2195;-79
2022/05/17 11:23:10;;;;;;;;;;;22.10;49.70;;;;;;490504;242;1201;-78
2022/05/17 11:25:12;;;;;;;;;;;22.10;49.60;;;;;;493411;241;1261;-79
2022/05/17 11:27:13;;;;;;;;;;;22.10;49.60;;;;;;490246;242;1184;-79
2022/05/17 11:29:15;;;;;;;;;;;22.10;49.60;;;;;;493430;241;1205;-79
2022/05/17 11:31:16;;;;;;;;;;;22.10;49.60;;;;;;490213;242;1119;-79
2022/05/17 11:33:17;;;;;;;;;;;22.20;49.50;;;;;;493237;241;1109;-79
2022/05/17 11:35:19;;;;;;;;;;;22.20;49.50;;;;;;490370;242;1102;-79
2022/05/17 11:37:20;;;;;;;;;;;22.10;49.50;;;;;;493586;241;1209;-79
2022/05/17 11:39:21;;;;;;;;;;;22.10;49.60;;;;;;490450;242;1283;-79
2022/05/17 11:41:23;;;;;;;;;;;22.30;49.50;;;;;;493566;241;2194;-79
2022/05/17 11:43:42;;;;;;;;;;;22.20;49.60;;;;;;490850;242;946;-79
2022/05/17 11:45:44;;;;;;;;;;;22.20;49.60;;;;;;493852;241;1128;-79
2022/05/17 11:47:45;;;;;;;;;;;22.30;49.30;;;;;;490646;243;1375;-80
2022/05/17 11:49:46;;;;;;;;;;;22.30;49.30;;;;;;493998;241;877;-79
2022/05/17 11:51:48;;;;;;;;;;;22.30;49.30;;;;;;490862;242;1187;-79
2022/05/17 11:53:49;;;;;;;;;;;22.20;49.60;;;;;;493856;241;1247;-79
2022/05/17 11:55:50;;;;;;;;;;;22.10;49.60;;;;;;490732;241;1163;-79
2022/05/17 11:57:51;;;;;;;;;;;22.30;49.50;;;;;;494020;241;1065;-79
2022/05/17 11:59:53;;;;;;;;;;;22.30;49.50;;;;;;491038;242;1052;-79
2022/05/17 12:01:54;;;;;;;;;;;22.30;49.40;;;;;;493918;241;2178;-79
2022/05/17 12:03:56;;;;;;;;;;;22.30;49.30;;;;;;491003;242;1101;-79
2022/05/17 12:05:57;;;;;;;;;;;22.30;49.40;;;;;;493804;241;1168;-79
2022/05/17 12:07:58;;;;;;;;;;;22.30;49.20;;;;;;491022;242;1093;-79
2022/05/17 12:10:00;;;;;;;;;;;22.40;49.00;;;;;;494152;241;1342;-79
2022/05/17 12:12:01;;;;;;;;;;;22.30;49.20;;;;;;490961;242;1379;-79
2022/05/17 12:14:02;;;;;;;;;;;22.40;49.20;;;;;;493949;241;1180;-79